sensor_id;sensor_type;location;lat;lon;timestamp;temperature;humidity
4739;DHT22;2383;48.632;10.156;2023-12-29T00:03:25;5.00;99.90
4739;DHT22;2383;48.632;10.156;2023-12-29T00:07:27;4.90;99.90
4739;DHT22;2383;48.632;10.156;2023-12-29T00:11:28;5.10;99.90
4739;DHT22;2383;48.632;10.156;2023-12-29T00:15:30;5.60;99.90
4739;DHT22;2383;48.632;10.156;2023-12-29T00:19:32;5.50;99.90
4739;DHT22;2383;48.632;10.156;2023-12-29T00:23:34;5.60;99.90
4739;DHT22;2383;48.632;10.156;2023-12-29T00:27:36;5.70;99.90
4739;DHT22;2383;48.632;10.156;2023-12-29T00:31:38;5.80;99.90
4739;DHT22;2383;48.632;10.156;2023-12-29T00:35:40;5.70;99.90
4739;DHT22;2383;48.632;10.156;2023-12-29T00:39:43;5.20;99.90
4739;DHT22;2383;48.632;10.156;2023-12-29T00:43:45;5.50;99.90
4739;DHT22;2383;48.632;10.156;2023-12-29T00:47:47;5.90;99.90
4739;DHT22;2383;48.632;10.156;2023-12-29T00:51:50;6.10;99.90
4739;DHT22;2383;48.632;10.156;2023-12-29T00:55:53;5.50;99.90
4739;DHT22;2383;48.632;10.156;2023-12-29T00:59:55;5.00;99.90
4739;DHT22;2383;48.632;10.156;2023-12-29T01:03:57;5.20;99.90
4739;DHT22;2383;48.632;10.156;2023-12-29T01:07:59;5.60;99.90
4739;DHT22;2383;48.632;10.156;2023-12-29T01:12:01;5.60;99.90
4739;DHT22;2383;48.632;10.156;2023-12-29T01:16:03;5.50;99.90
4739;DHT22;2383;48.632;10.156;2023-12-29T01:20:06;5.20;99.90
4739;DHT22;2383;48.632;10.156;2023-12-29T01:24:08;5.30;99.90
4739;DHT22;2383;48.632;10.156;2023-12-29T01:28:10;5.70;99.90
4739;DHT22;2383;48.632;10.156;2023-12-29T01:32:12;5.70;99.90
4739;DHT22;2383;48.632;10.156;2023-12-29T01:36:18;5.70;99.90
4739;DHT22;2383;48.632;10.156;2023-12-29T01:40:26;6.10;99.90
4739;DHT22;2383;48.632;10.156;2023-12-29T01:44:28;5.70;99.90
4739;DHT22;2383;48.632;10.156;2023-12-29T01:48:30;5.90;99.90
4739;DHT22;2383;48.632;10.156;2023-12-29T01:52:33;6.20;99.90
4739;DHT22;2383;48.632;10.156;2023-12-29T01:56:35;5.60;99.90
4739;DHT22;2383;48.632;10.156;2023-12-29T02:00:38;5.30;99.90
4739;DHT22;2383;48.632;10.156;2023-12-29T02:04:41;5.30;99.90
4739;DHT22;2383;48.632;10.156;2023-12-29T02:08:43;5.40;99.90
4739;DHT22;2383;48.632;10.156;2023-12-29T02:12:47;5.50;99.90
4739;DHT22;2383;48.632;10.156;2023-12-29T02:17:10;5.40;99.90
4739;DHT22;2383;48.632;10.156;2023-12-29T02:21:16;5.00;99.90
4739;DHT22;2383;48.632;10.156;2023-12-29T02:25:18;5.20;99.90
4739;DHT22;2383;48.632;10.156;2023-12-29T02:29:21;4.90;99.90
4739;DHT22;2383;48.632;10.156;2023-12-29T02:33:26;5.20;99.90
4739;DHT22;2383;48.632;10.156;2023-12-29T02:37:31;5.40;99.90
4739;DHT22;2383;48.632;10.156;2023-12-29T02:41:33;5.40;99.90
4739;DHT22;2383;48.632;10.156;2023-12-29T02:45:35;5.20;99.90
4739;DHT22;2383;48.632;10.156;2023-12-29T02:49:37;5.40;99.90
4739;DHT22;2383;48.632;10.156;2023-12-29T02:53:39;4.90;99.90
4739;DHT22;2383;48.632;10.156;2023-12-29T02:57:41;5.30;99.90
4739;DHT22;2383;48.632;10.156;2023-12-29T03:01:43;5.10;99.90
4739;DHT22;2383;48.632;10.156;2023-12-29T03:05:45;5.40;99.90
4739;DHT22;2383;48.632;10.156;2023-12-29T03:09:47;5.00;99.90
4739;DHT22;2383;48.632;10.156;2023-12-29T03:13:49;5.40;99.90
4739;DHT22;2383;48.632;10.156;2023-12-29T03:17:52;5.50;99.90
4739;DHT22;2383;48.632;10.156;2023-12-29T03:21:55;5.50;99.90
4739;DHT22;2383;48.632;10.156;2023-12-29T03:25:57;5.80;99.90
4739;DHT22;2383;48.632;10.156;2023-12-29T03:30:00;6.00;99.90
4739;DHT22;2383;48.632;10.156;2023-12-29T03:34:02;6.10;99.90
4739;DHT22;2383;48.632;10.156;2023-12-29T03:38:04;6.00;99.90
4739;DHT22;2383;48.632;10.156;2023-12-29T03:42:06;5.90;99.90
4739;DHT22;2383;48.632;10.156;2023-12-29T03:46:18;6.20;99.90
4739;DHT22;2383;48.632;10.156;2023-12-29T03:50:20;5.90;99.90
4739;DHT22;2383;48.632;10.156;2023-12-29T03:54:23;5.90;99.90
4739;DHT22;2383;48.632;10.156;2023-12-29T03:58:26;5.80;99.90
4739;DHT22;2383;48.632;10.156;2023-12-29T04:02:28;6.20;99.90
4739;DHT22;2383;48.632;10.156;2023-12-29T04:06:30;6.00;99.90
4739;DHT22;2383;48.632;10.156;2023-12-29T04:10:32;6.00;99.90
4739;DHT22;2383;48.632;10.156;2023-12-29T04:14:34;6.00;99.90
4739;DHT22;2383;48.632;10.156;2023-12-29T04:18:36;5.90;99.90
4739;DHT22;2383;48.632;10.156;2023-12-29T04:22:38;6.00;99.90
4739;DHT22;2383;48.632;10.156;2023-12-29T04:26:41;5.80;99.90
4739;DHT22;2383;48.632;10.156;2023-12-29T04:30:43;5.90;99.90
4739;DHT22;2383;48.632;10.156;2023-12-29T04:34:45;5.50;99.90
4739;DHT22;2383;48.632;10.156;2023-12-29T04:38:47;5.50;99.90
4739;DHT22;2383;48.632;10.156;2023-12-29T04:42:49;5.60;99.90
4739;DHT22;2383;48.632;10.156;2023-12-29T04:46:51;5.30;99.90
4739;DHT22;2383;48.632;10.156;2023-12-29T04:50:53;5.20;99.90
4739;DHT22;2383;48.632;10.156;2023-12-29T04:54:55;5.20;99.90
4739;DHT22;2383;48.632;10.156;2023-12-29T04:58:57;5.30;99.90
4739;DHT22;2383;48.632;10.156;2023-12-29T05:02:59;5.10;99.90
4739;DHT22;2383;48.632;10.156;2023-12-29T05:07:01;4.90;99.90
4739;DHT22;2383;48.632;10.156;2023-12-29T05:11:03;5.00;99.90
4739;DHT22;2383;48.632;10.156;2023-12-29T05:15:05;5.20;99.90
4739;DHT22;2383;48.632;10.156;2023-12-29T05:19:08;5.30;99.90
4739;DHT22;2383;48.632;10.156;2023-12-29T05:23:10;5.10;99.90
4739;DHT22;2383;48.632;10.156;2023-12-29T05:27:12;4.90;99.90
4739;DHT22;2383;48.632;10.156;2023-12-29T05:31:14;5.20;99.90
4739;DHT22;2383;48.632;10.156;2023-12-29T05:35:16;5.40;99.90
4739;DHT22;2383;48.632;10.156;2023-12-29T05:39:18;5.60;99.90
4739;DHT22;2383;48.632;10.156;2023-12-29T05:43:20;5.50;99.90
4739;DHT22;2383;48.632;10.156;2023-12-29T05:47:22;5.30;99.90
4739;DHT22;2383;48.632;10.156;2023-12-29T05:51:24;4.80;99.90
4739;DHT22;2383;48.632;10.156;2023-12-29T05:55:26;4.90;99.90
4739;DHT22;2383;48.632;10.156;2023-12-29T05:59:28;5.30;99.90
4739;DHT22;2383;48.632;10.156;2023-12-29T06:03:30;5.50;99.90
4739;DHT22;2383;48.632;10.156;2023-12-29T06:07:33;5.60;99.90
4739;DHT22;2383;48.632;10.156;2023-12-29T06:11:35;5.70;99.90
4739;DHT22;2383;48.632;10.156;2023-12-29T06:15:37;5.30;99.90
4739;DHT22;2383;48.632;10.156;2023-12-29T06:19:40;5.20;99.90
4739;DHT22;2383;48.632;10.156;2023-12-29T06:23:42;5.10;99.90
4739;DHT22;2383;48.632;10.156;2023-12-29T06:27:44;5.50;99.90
4739;DHT22;2383;48.632;10.156;2023-12-29T06:31:46;5.10;99.90
4739;DHT22;2383;48.632;10.156;2023-12-29T06:35:48;5.30;99.90
4739;DHT22;2383;48.632;10.156;2023-12-29T06:39:50;5.60;99.90
4739;DHT22;2383;48.632;10.156;2023-12-29T06:43:52;5.70;99.90
4739;DHT22;2383;48.632;10.156;2023-12-29T06:47:54;5.70;99.90
4739;DHT22;2383;48.632;10.156;2023-12-29T06:51:56;5.90;99.90
4739;DHT22;2383;48.632;10.156;2023-12-29T06:55:58;5.50;99.90
4739;DHT22;2383;48.632;10.156;2023-12-29T07:00:00;5.40;99.90
4739;DHT22;2383;48.632;10.156;2023-12-29T07:04:03;5.30;99.90
4739;DHT22;2383;48.632;10.156;2023-12-29T07:08:05;5.30;99.90
4739;DHT22;2383;48.632;10.156;2023-12-29T07:12:07;5.40;99.90
4739;DHT22;2383;48.632;10.156;2023-12-29T07:16:09;5.40;99.90
4739;DHT22;2383;48.632;10.156;2023-12-29T07:20:12;5.30;99.90
4739;DHT22;2383;48.632;10.156;2023-12-29T07:24:14;5.60;99.90
4739;DHT22;2383;48.632;10.156;2023-12-29T07:28:16;5.60;99.90
4739;DHT22;2383;48.632;10.156;2023-12-29T07:32:18;5.30;99.90
4739;DHT22;2383;48.632;10.156;2023-12-29T07:36:20;5.40;99.90
4739;DHT22;2383;48.632;10.156;2023-12-29T07:40:22;5.70;99.90
4739;DHT22;2383;48.632;10.156;2023-12-29T07:44:24;5.50;99.90
4739;DHT22;2383;48.632;10.156;2023-12-29T07:48:26;5.30;99.90
4739;DHT22;2383;48.632;10.156;2023-12-29T07:52:30;5.30;99.90
4739;DHT22;2383;48.632;10.156;2023-12-29T07:56:32;5.30;99.90
4739;DHT22;2383;48.632;10.156;2023-12-29T08:00:34;5.50;99.90
4739;DHT22;2383;48.632;10.156;2023-12-29T08:04:36;5.90;99.90
4739;DHT22;2383;48.632;10.156;2023-12-29T08:08:38;6.10;99.90
4739;DHT22;2383;48.632;10.156;2023-12-29T08:12:40;5.90;99.90
4739;DHT22;2383;48.632;10.156;2023-12-29T08:16:42;6.20;99.90
4739;DHT22;2383;48.632;10.156;2023-12-29T08:20:44;6.40;99.90
4739;DHT22;2383;48.632;10.156;2023-12-29T08:24:46;6.30;99.90
4739;DHT22;2383;48.632;10.156;2023-12-29T08:28:48;6.20;99.90
4739;DHT22;2383;48.632;10.156;2023-12-29T08:32:50;6.30;99.90
4739;DHT22;2383;48.632;10.156;2023-12-29T08:36:52;6.20;99.90
4739;DHT22;2383;48.632;10.156;2023-12-29T08:40:54;6.40;99.90
4739;DHT22;2383;48.632;10.156;2023-12-29T08:44:59;6.00;99.90
4739;DHT22;2383;48.632;10.156;2023-12-29T08:49:00;5.80;99.90
4739;DHT22;2383;48.632;10.156;2023-12-29T08:53:03;6.20;99.90
4739;DHT22;2383;48.632;10.156;2023-12-29T08:57:05;6.30;99.90
4739;DHT22;2383;48.632;10.156;2023-12-29T09:01:08;6.50;99.90
4739;DHT22;2383;48.632;10.156;2023-12-29T09:05:10;6.10;99.90
4739;DHT22;2383;48.632;10.156;2023-12-29T09:09:13;5.70;99.90
4739;DHT22;2383;48.632;10.156;2023-12-29T09:13:15;5.70;99.90
4739;DHT22;2383;48.632;10.156;2023-12-29T09:17:17;5.90;99.90
4739;DHT22;2383;48.632;10.156;2023-12-29T09:21:18;6.10;99.90
4739;DHT22;2383;48.632;10.156;2023-12-29T09:25:20;6.20;99.90
4739;DHT22;2383;48.632;10.156;2023-12-29T09:29:22;6.10;99.90
4739;DHT22;2383;48.632;10.156;2023-12-29T09:33:24;6.10;99.90
4739;DHT22;2383;48.632;10.156;2023-12-29T09:37:26;6.40;99.90
4739;DHT22;2383;48.632;10.156;2023-12-29T09:41:31;6.60;99.90
4739;DHT22;2383;48.632;10.156;2023-12-29T09:45:33;6.80;99.90
4739;DHT22;2383;48.632;10.156;2023-12-29T09:49:40;6.50;99.90
4739;DHT22;2383;48.632;10.156;2023-12-29T09:53:43;6.50;99.90
4739;DHT22;2383;48.632;10.156;2023-12-29T09:57:47;6.50;99.90
4739;DHT22;2383;48.632;10.156;2023-12-29T10:01:50;6.60;99.90
4739;DHT22;2383;48.632;10.156;2023-12-29T10:05:56;6.70;99.90
4739;DHT22;2383;48.632;10.156;2023-12-29T10:10:00;7.10;99.90
4739;DHT22;2383;48.632;10.156;2023-12-29T10:14:10;7.10;99.90
4739;DHT22;2383;48.632;10.156;2023-12-29T10:18:23;6.80;99.90
4739;DHT22;2383;48.632;10.156;2023-12-29T10:22:46;6.70;99.90
4739;DHT22;2383;48.632;10.156;2023-12-29T10:26:50;6.70;99.90
4739;DHT22;2383;48.632;10.156;2023-12-29T10:30:55;7.00;99.90
4739;DHT22;2383;48.632;10.156;2023-12-29T10:35:12;7.60;99.90
4739;DHT22;2383;48.632;10.156;2023-12-29T10:39:14;7.00;99.90
4739;DHT22;2383;48.632;10.156;2023-12-29T10:43:23;6.90;99.90
4739;DHT22;2383;48.632;10.156;2023-12-29T10:47:25;7.00;99.90
4739;DHT22;2383;48.632;10.156;2023-12-29T10:51:27;7.20;99.90
4739;DHT22;2383;48.632;10.156;2023-12-29T10:55:31;7.10;99.90
4739;DHT22;2383;48.632;10.156;2023-12-29T10:59:33;7.10;99.90
4739;DHT22;2383;48.632;10.156;2023-12-29T11:03:36;7.20;99.90
4739;DHT22;2383;48.632;10.156;2023-12-29T11:07:40;7.10;99.90
4739;DHT22;2383;48.632;10.156;2023-12-29T11:11:43;7.40;99.90
4739;DHT22;2383;48.632;10.156;2023-12-29T11:15:45;7.50;99.90
4739;DHT22;2383;48.632;10.156;2023-12-29T11:19:48;7.60;99.90
4739;DHT22;2383;48.632;10.156;2023-12-29T11:23:51;7.70;99.90
4739;DHT22;2383;48.632;10.156;2023-12-29T11:27:54;7.60;99.90
4739;DHT22;2383;48.632;10.156;2023-12-29T11:31:57;7.50;99.90
4739;DHT22;2383;48.632;10.156;2023-12-29T11:36:12;7.60;99.90
4739;DHT22;2383;48.632;10.156;2023-12-29T11:40:45;7.50;99.90
4739;DHT22;2383;48.632;10.156;2023-12-29T11:44:49;7.60;99.90
4739;DHT22;2383;48.632;10.156;2023-12-29T11:48:58;8.00;99.90
4739;DHT22;2383;48.632;10.156;2023-12-29T11:53:05;8.00;99.90
4739;DHT22;2383;48.632;10.156;2023-12-29T11:57:08;8.30;99.90
4739;DHT22;2383;48.632;10.156;2023-12-29T12:01:10;8.30;99.90
4739;DHT22;2383;48.632;10.156;2023-12-29T12:05:12;8.10;99.90
4739;DHT22;2383;48.632;10.156;2023-12-29T12:09:35;8.30;99.90
4739;DHT22;2383;48.632;10.156;2023-12-29T12:13:45;7.90;99.90
4739;DHT22;2383;48.632;10.156;2023-12-29T12:17:50;8.10;99.90
4739;DHT22;2383;48.632;10.156;2023-12-29T12:21:53;8.00;99.90
4739;DHT22;2383;48.632;10.156;2023-12-29T12:25:58;7.90;99.90
4739;DHT22;2383;48.632;10.156;2023-12-29T12:30:01;7.40;99.90
4739;DHT22;2383;48.632;10.156;2023-12-29T12:34:04;7.60;99.90
4739;DHT22;2383;48.632;10.156;2023-12-29T12:38:14;7.80;99.90
4739;DHT22;2383;48.632;10.156;2023-12-29T12:42:23;7.80;99.90
4739;DHT22;2383;48.632;10.156;2023-12-29T12:46:25;7.90;99.90
4739;DHT22;2383;48.632;10.156;2023-12-29T12:50:27;8.10;99.90
4739;DHT22;2383;48.632;10.156;2023-12-29T12:54:29;7.50;99.90
4739;DHT22;2383;48.632;10.156;2023-12-29T12:58:35;7.90;99.90
4739;DHT22;2383;48.632;10.156;2023-12-29T13:02:37;8.20;99.90
4739;DHT22;2383;48.632;10.156;2023-12-29T13:06:43;8.00;99.90
4739;DHT22;2383;48.632;10.156;2023-12-29T13:10:49;7.90;99.90
4739;DHT22;2383;48.632;10.156;2023-12-29T13:14:51;7.50;99.90
4739;DHT22;2383;48.632;10.156;2023-12-29T13:18:53;7.50;99.90
4739;DHT22;2383;48.632;10.156;2023-12-29T13:22:55;8.10;99.90
4739;DHT22;2383;48.632;10.156;2023-12-29T13:27:02;8.10;99.90
4739;DHT22;2383;48.632;10.156;2023-12-29T13:31:08;8.10;99.90
4739;DHT22;2383;48.632;10.156;2023-12-29T13:39:39;7.40;99.90
4739;DHT22;2383;48.632;10.156;2023-12-29T13:43:43;7.70;99.90
4739;DHT22;2383;48.632;10.156;2023-12-29T13:47:47;8.00;99.90
4739;DHT22;2383;48.632;10.156;2023-12-29T13:51:49;8.00;99.90
4739;DHT22;2383;48.632;10.156;2023-12-29T13:55:51;8.10;99.90
4739;DHT22;2383;48.632;10.156;2023-12-29T13:59:53;8.20;99.90
4739;DHT22;2383;48.632;10.156;2023-12-29T14:03:59;8.20;99.90
4739;DHT22;2383;48.632;10.156;2023-12-29T14:12:07;8.30;99.90
4739;DHT22;2383;48.632;10.156;2023-12-29T14:16:09;7.80;99.90
4739;DHT22;2383;48.632;10.156;2023-12-29T14:20:33;7.70;99.90
4739;DHT22;2383;48.632;10.156;2023-12-29T14:24:36;7.80;99.90
4739;DHT22;2383;48.632;10.156;2023-12-29T14:28:39;7.50;99.90
4739;DHT22;2383;48.632;10.156;2023-12-29T14:32:40;7.30;99.90
4739;DHT22;2383;48.632;10.156;2023-12-29T14:36:43;7.80;99.90
4739;DHT22;2383;48.632;10.156;2023-12-29T14:40:45;7.90;99.90
4739;DHT22;2383;48.632;10.156;2023-12-29T14:44:48;8.20;99.90
4739;DHT22;2383;48.632;10.156;2023-12-29T14:48:51;8.20;99.90
4739;DHT22;2383;48.632;10.156;2023-12-29T14:52:53;8.50;99.90
4739;DHT22;2383;48.632;10.156;2023-12-29T14:56:55;8.60;99.90
4739;DHT22;2383;48.632;10.156;2023-12-29T15:01:09;7.70;99.90
4739;DHT22;2383;48.632;10.156;2023-12-29T15:05:11;8.00;99.90
4739;DHT22;2383;48.632;10.156;2023-12-29T15:09:13;8.00;99.90
4739;DHT22;2383;48.632;10.156;2023-12-29T15:13:15;8.20;99.90
4739;DHT22;2383;48.632;10.156;2023-12-29T15:17:17;7.90;99.90
4739;DHT22;2383;48.632;10.156;2023-12-29T15:21:19;8.30;99.90
4739;DHT22;2383;48.632;10.156;2023-12-29T15:25:21;8.30;99.90
4739;DHT22;2383;48.632;10.156;2023-12-29T15:29:27;8.20;99.90
4739;DHT22;2383;48.632;10.156;2023-12-29T15:33:33;8.10;99.90
4739;DHT22;2383;48.632;10.156;2023-12-29T15:37:35;8.00;99.90
4739;DHT22;2383;48.632;10.156;2023-12-29T15:41:37;8.20;99.90
4739;DHT22;2383;48.632;10.156;2023-12-29T15:45:39;7.40;99.90
4739;DHT22;2383;48.632;10.156;2023-12-29T15:49:41;7.70;99.90
4739;DHT22;2383;48.632;10.156;2023-12-29T15:53:43;7.70;99.90
4739;DHT22;2383;48.632;10.156;2023-12-29T15:57:45;7.50;99.90
4739;DHT22;2383;48.632;10.156;2023-12-29T16:01:47;7.70;99.90
4739;DHT22;2383;48.632;10.156;2023-12-29T16:05:50;7.60;99.90
4739;DHT22;2383;48.632;10.156;2023-12-29T16:09:52;7.60;99.90
4739;DHT22;2383;48.632;10.156;2023-12-29T16:13:54;7.50;99.90
4739;DHT22;2383;48.632;10.156;2023-12-29T16:17:56;7.20;99.90
4739;DHT22;2383;48.632;10.156;2023-12-29T16:21:58;7.30;99.90
4739;DHT22;2383;48.632;10.156;2023-12-29T16:26:05;7.30;99.90
4739;DHT22;2383;48.632;10.156;2023-12-29T16:30:08;7.00;99.90
4739;DHT22;2383;48.632;10.156;2023-12-29T16:34:10;7.30;99.90
4739;DHT22;2383;48.632;10.156;2023-12-29T16:38:12;7.20;99.90
4739;DHT22;2383;48.632;10.156;2023-12-29T16:42:14;7.20;99.90
4739;DHT22;2383;48.632;10.156;2023-12-29T16:46:19;7.00;99.90
4739;DHT22;2383;48.632;10.156;2023-12-29T16:50:20;6.90;99.90
4739;DHT22;2383;48.632;10.156;2023-12-29T16:54:23;7.00;99.90
4739;DHT22;2383;48.632;10.156;2023-12-29T16:58:24;7.10;99.90
4739;DHT22;2383;48.632;10.156;2023-12-29T17:02:27;7.30;99.90
4739;DHT22;2383;48.632;10.156;2023-12-29T17:06:29;7.60;99.90
4739;DHT22;2383;48.632;10.156;2023-12-29T17:10:31;7.40;99.90
4739;DHT22;2383;48.632;10.156;2023-12-29T17:14:33;7.40;99.90
4739;DHT22;2383;48.632;10.156;2023-12-29T17:18:35;7.10;99.90
4739;DHT22;2383;48.632;10.156;2023-12-29T17:22:37;7.30;99.90
4739;DHT22;2383;48.632;10.156;2023-12-29T17:26:39;7.40;99.90
4739;DHT22;2383;48.632;10.156;2023-12-29T17:30:41;7.30;99.90
4739;DHT22;2383;48.632;10.156;2023-12-29T17:34:43;7.40;99.90
4739;DHT22;2383;48.632;10.156;2023-12-29T17:38:45;7.40;99.90
4739;DHT22;2383;48.632;10.156;2023-12-29T17:42:47;7.30;99.90
4739;DHT22;2383;48.632;10.156;2023-12-29T17:46:49;7.40;99.90
4739;DHT22;2383;48.632;10.156;2023-12-29T17:50:52;7.40;99.90
4739;DHT22;2383;48.632;10.156;2023-12-29T17:54:54;7.20;99.90
4739;DHT22;2383;48.632;10.156;2023-12-29T17:58:58;7.40;99.90
4739;DHT22;2383;48.632;10.156;2023-12-29T18:03:00;7.30;99.90
4739;DHT22;2383;48.632;10.156;2023-12-29T18:07:03;7.00;99.90
4739;DHT22;2383;48.632;10.156;2023-12-29T18:11:08;6.80;99.90
4739;DHT22;2383;48.632;10.156;2023-12-29T18:15:10;6.70;99.90
4739;DHT22;2383;48.632;10.156;2023-12-29T18:19:16;6.60;99.90
4739;DHT22;2383;48.632;10.156;2023-12-29T18:23:24;6.70;99.90
4739;DHT22;2383;48.632;10.156;2023-12-29T18:27:27;6.50;99.90
4739;DHT22;2383;48.632;10.156;2023-12-29T18:31:32;6.50;99.90
4739;DHT22;2383;48.632;10.156;2023-12-29T18:35:34;6.20;99.90
4739;DHT22;2383;48.632;10.156;2023-12-29T18:39:36;6.50;99.90
4739;DHT22;2383;48.632;10.156;2023-12-29T18:43:38;6.60;99.90
4739;DHT22;2383;48.632;10.156;2023-12-29T18:47:41;6.20;99.90
4739;DHT22;2383;48.632;10.156;2023-12-29T18:51:43;5.80;99.90
4739;DHT22;2383;48.632;10.156;2023-12-29T18:55:45;5.60;99.90
4739;DHT22;2383;48.632;10.156;2023-12-29T18:59:47;5.70;99.90
4739;DHT22;2383;48.632;10.156;2023-12-29T19:03:49;5.70;99.90
4739;DHT22;2383;48.632;10.156;2023-12-29T19:07:51;5.70;99.90
4739;DHT22;2383;48.632;10.156;2023-12-29T19:11:54;5.60;99.90
4739;DHT22;2383;48.632;10.156;2023-12-29T19:15:56;5.80;99.90
4739;DHT22;2383;48.632;10.156;2023-12-29T19:20:00;5.50;99.90
4739;DHT22;2383;48.632;10.156;2023-12-29T19:24:02;5.40;99.90
4739;DHT22;2383;48.632;10.156;2023-12-29T19:28:05;5.40;99.90
4739;DHT22;2383;48.632;10.156;2023-12-29T19:32:07;5.60;99.90
4739;DHT22;2383;48.632;10.156;2023-12-29T19:36:12;5.30;99.90
4739;DHT22;2383;48.632;10.156;2023-12-29T19:40:17;5.30;99.90
4739;DHT22;2383;48.632;10.156;2023-12-29T19:44:19;5.20;99.90
4739;DHT22;2383;48.632;10.156;2023-12-29T19:48:21;5.40;99.90
4739;DHT22;2383;48.632;10.156;2023-12-29T19:52:23;5.30;99.90
4739;DHT22;2383;48.632;10.156;2023-12-29T19:56:28;5.00;99.90
4739;DHT22;2383;48.632;10.156;2023-12-29T20:00:30;4.90;99.90
4739;DHT22;2383;48.632;10.156;2023-12-29T20:04:32;4.80;99.90
4739;DHT22;2383;48.632;10.156;2023-12-29T20:08:35;4.80;99.90
4739;DHT22;2383;48.632;10.156;2023-12-29T20:12:37;4.70;99.90
4739;DHT22;2383;48.632;10.156;2023-12-29T20:16:39;4.50;99.90
4739;DHT22;2383;48.632;10.156;2023-12-29T20:20:41;4.40;99.90
4739;DHT22;2383;48.632;10.156;2023-12-29T20:24:43;4.40;99.90
4739;DHT22;2383;48.632;10.156;2023-12-29T20:28:45;4.50;99.90
4739;DHT22;2383;48.632;10.156;2023-12-29T20:32:47;4.40;99.90
4739;DHT22;2383;48.632;10.156;2023-12-29T20:36:50;4.50;99.90
4739;DHT22;2383;48.632;10.156;2023-12-29T20:40:52;4.40;99.90
4739;DHT22;2383;48.632;10.156;2023-12-29T20:44:54;4.60;99.90
4739;DHT22;2383;48.632;10.156;2023-12-29T20:48:58;4.40;99.90
4739;DHT22;2383;48.632;10.156;2023-12-29T20:53:00;4.40;99.90
4739;DHT22;2383;48.632;10.156;2023-12-29T20:57:03;4.30;99.90
4739;DHT22;2383;48.632;10.156;2023-12-29T21:01:05;4.20;99.90
4739;DHT22;2383;48.632;10.156;2023-12-29T21:05:11;3.70;99.90
4739;DHT22;2383;48.632;10.156;2023-12-29T21:09:14;3.50;99.90
4739;DHT22;2383;48.632;10.156;2023-12-29T21:13:16;3.60;99.90
4739;DHT22;2383;48.632;10.156;2023-12-29T21:17:19;3.70;99.90
4739;DHT22;2383;48.632;10.156;2023-12-29T21:21:21;3.80;99.90
4739;DHT22;2383;48.632;10.156;2023-12-29T21:25:25;3.90;99.90
4739;DHT22;2383;48.632;10.156;2023-12-29T21:29:28;3.60;99.90
4739;DHT22;2383;48.632;10.156;2023-12-29T21:33:29;3.50;99.90
4739;DHT22;2383;48.632;10.156;2023-12-29T21:37:32;3.50;99.90
4739;DHT22;2383;48.632;10.156;2023-12-29T21:41:34;3.60;99.90
4739;DHT22;2383;48.632;10.156;2023-12-29T21:45:37;3.50;99.90
4739;DHT22;2383;48.632;10.156;2023-12-29T21:49:39;3.60;99.90
4739;DHT22;2383;48.632;10.156;2023-12-29T21:53:42;3.60;99.90
4739;DHT22;2383;48.632;10.156;2023-12-29T21:57:44;3.70;99.90
4739;DHT22;2383;48.632;10.156;2023-12-29T22:01:46;3.50;99.90
4739;DHT22;2383;48.632;10.156;2023-12-29T22:05:48;3.40;99.90
4739;DHT22;2383;48.632;10.156;2023-12-29T22:09:50;3.40;99.90
4739;DHT22;2383;48.632;10.156;2023-12-29T22:13:52;3.40;99.90
4739;DHT22;2383;48.632;10.156;2023-12-29T22:17:54;3.60;99.90
4739;DHT22;2383;48.632;10.156;2023-12-29T22:21:56;3.70;99.90
4739;DHT22;2383;48.632;10.156;2023-12-29T22:25:58;3.40;99.90
4739;DHT22;2383;48.632;10.156;2023-12-29T22:30:00;3.30;99.90
4739;DHT22;2383;48.632;10.156;2023-12-29T22:34:02;3.50;99.90
4739;DHT22;2383;48.632;10.156;2023-12-29T22:38:04;3.40;99.90
4739;DHT22;2383;48.632;10.156;2023-12-29T22:42:06;3.20;99.90
4739;DHT22;2383;48.632;10.156;2023-12-29T22:46:08;3.00;99.90
4739;DHT22;2383;48.632;10.156;2023-12-29T22:50:14;3.00;99.90
4739;DHT22;2383;48.632;10.156;2023-12-29T22:54:16;3.00;99.90
4739;DHT22;2383;48.632;10.156;2023-12-29T22:58:18;3.20;99.90
4739;DHT22;2383;48.632;10.156;2023-12-29T23:02:20;3.00;99.90
4739;DHT22;2383;48.632;10.156;2023-12-29T23:06:22;3.00;99.90
4739;DHT22;2383;48.632;10.156;2023-12-29T23:10:24;3.10;99.90
4739;DHT22;2383;48.632;10.156;2023-12-29T23:14:26;3.10;99.90
4739;DHT22;2383;48.632;10.156;2023-12-29T23:18:28;3.10;99.90
4739;DHT22;2383;48.632;10.156;2023-12-29T23:22:30;2.90;99.90
4739;DHT22;2383;48.632;10.156;2023-12-29T23:26:32;3.00;99.90
4739;DHT22;2383;48.632;10.156;2023-12-29T23:30:40;3.00;99.90
4739;DHT22;2383;48.632;10.156;2023-12-29T23:34:42;2.80;99.90
4739;DHT22;2383;48.632;10.156;2023-12-29T23:38:45;2.90;99.90
4739;DHT22;2383;48.632;10.156;2023-12-29T23:42:47;3.30;99.90
4739;DHT22;2383;48.632;10.156;2023-12-29T23:46:50;3.60;99.90
4739;DHT22;2383;48.632;10.156;2023-12-29T23:50:52;3.80;99.90
4739;DHT22;2383;48.632;10.156;2023-12-29T23:54:54;4.00;99.90
4739;DHT22;2383;48.632;10.156;2023-12-29T23:58:56;4.10;99.90
